Time;durP1;ratioP1;P1;durP2;ratioP2;P2;SDS_P1;SDS_P2;PMS_P1;PMS_P2;Temp;Humidity;BMP_temperature;BMP_pressure;BME280_temperature;BME280_humidity;BME280_pressure;Samples;Min_cycle;Max_cycle;Signal;HPM_P1;HPM_P2
2023/01/21 00:04:41;;;;;;;;;;;;;;;;;;10272060;28;19960;-69
2023/01/21 00:09:39;;;;;;;;;;;;;;;;;;10277646;28;19956;-69
2023/01/21 00:14:37;;;;;;;;;;;;;;;;;;10272220;28;19991;-69
2023/01/21 00:19:35;;;;;;;;;;;;;;;;;;10272207;28;20347;-69
2023/01/21 00:24:38;;;;;;;;;;;;;;;;;;10286824;28;19956;-69
2023/01/21 00:29:38;;;;;;;;;;;;;;;;;;10294361;28;19948;-69
2023/01/21 00:34:36;;;;;;;;;;;;;;;;;;10292140;28;19920;-69
2023/01/21 00:39:34;;;;;;;;;;;;;;;;;;10290790;28;19974;-69
2023/01/21 00:44:32;;;;;;;;;;;;;;;;;;10292665;28;19967;-69
2023/01/21 00:49:30;;;;;;;;;;;;;;;;;;10289684;28;19986;-70
2023/01/21 00:54:30;;;;;;;;;;;;;;;;;;10291953;28;19963;-69
2023/01/21 00:59:28;;;;;;;;;;;;;;;;;;10290217;28;20074;-69
2023/01/21 01:04:26;;;;;;;;;;;;;;;;;;10292902;28;20416;-69
2023/01/21 01:09:24;;;;;;;;;;;;;;;;;;10290933;28;19967;-70
2023/01/21 01:14:22;;;;;;;;;;;;;;;;;;10292024;28;19960;-69
2023/01/21 01:19:20;;;;;;;;;;;;;;;;;;10288641;28;20416;-69
2023/01/21 01:24:18;;;;;;;;;;;;;;;;;;10291507;28;19956;-69
2023/01/21 01:29:17;;;;;;;;;;;;;;;;;;10291730;28;20050;-69
2023/01/21 01:34:14;;;;;;;;;;;;;;;;;;10290771;28;20366;-69
2023/01/21 01:39:12;;;;;;;;;;;;;;;;;;10287054;28;19963;-69
2023/01/21 01:44:10;;;;;;;;;;;;;;;;;;10291373;28;19962;-70
2023/01/21 01:49:08;;;;;;;;;;;;;;;;;;10292648;28;19963;-68
2023/01/21 01:54:06;;;;;;;;;;;;;;;;;;10289443;28;19963;-70
2023/01/21 01:59:04;;;;;;;;;;;;;;;;;;10289995;28;19955;-70
2023/01/21 02:04:03;;;;;;;;;;;;;;;;;;10291810;28;20487;-69
2023/01/21 02:09:01;;;;;;;;;;;;;;;;;;10289760;28;19971;-69
2023/01/21 02:13:58;;;;;;;;;;;;;;;;;;10292961;28;19963;-69
2023/01/21 02:18:56;;;;;;;;;;;;;;;;;;10288343;28;19952;-69
2023/01/21 02:23:54;;;;;;;;;;;;;;;;;;10296856;28;19966;-68
2023/01/21 02:28:52;;;;;;;;;;;;;;;;;;10300153;28;19979;-70
2023/01/21 02:33:50;;;;;;;;;;;;;;;;;;10298039;28;20469;-69
2023/01/21 02:38:48;;;;;;;;;;;;;;;;;;10296257;28;19921;-70
2023/01/21 02:43:46;;;;;;;;;;;;;;;;;;10298308;28;19971;-70
2023/01/21 02:48:43;;;;;;;;;;;;;;;;;;10299007;28;19952;-69
2023/01/21 02:53:41;;;;;;;;;;;;;;;;;;10297638;28;20369;-69
2023/01/21 02:58:39;;;;;;;;;;;;;;;;;;10296854;28;19970;-70
2023/01/21 03:03:37;;;;;;;;;;;;;;;;;;10295577;28;19959;-70
2023/01/21 03:08:37;;;;;;;;;;;;;;;;;;10298003;28;19959;-70
2023/01/21 03:18:51;;;;;;;;;;;;;;;;;;10297191;28;19960;-70
2023/01/21 03:23:50;;;;;;;;;;;;;;;;;;10296885;28;19960;-70
2023/01/21 03:28:48;;;;;;;;;;;;;;;;;;10296503;28;20010;-70
2023/01/21 03:33:47;;;;;;;;;;;;;;;;;;10296400;28;19975;-70
2023/01/21 03:38:44;;;;;;;;;;;;;;;;;;10295186;28;19959;-70
2023/01/21 03:43:42;;;;;;;;;;;;;;;;;;10297429;28;20353;-70
2023/01/21 03:48:40;;;;;;;;;;;;;;;;;;10294100;28;19920;-70
2023/01/21 03:53:38;;;;;;;;;;;;;;;;;;10296625;28;19928;-70
2023/01/21 03:58:36;;;;;;;;;;;;;;;;;;10295216;28;20381;-70
2023/01/21 04:03:34;;;;;;;;;;;;;;;;;;10295269;28;19967;-69
2023/01/21 04:08:32;;;;;;;;;;;;;;;;;;10295809;28;20005;-69
2023/01/21 04:13:29;;;;;;;;;;;;;;;;;;10294209;28;20348;-69
2023/01/21 04:18:27;;;;;;;;;;;;;;;;;;10294318;28;19959;-69
2023/01/21 04:23:25;;;;;;;;;;;;;;;;;;10291376;28;20381;-68
2023/01/21 04:28:23;;;;;;;;;;;;;;;;;;10295122;28;19921;-68
2023/01/21 04:33:21;;;;;;;;;;;;;;;;;;10293850;28;19979;-69
2023/01/21 04:38:19;;;;;;;;;;;;;;;;;;10292182;28;19958;-68
2023/01/21 04:43:17;;;;;;;;;;;;;;;;;;10292152;28;19959;-69
2023/01/21 04:48:15;;;;;;;;;;;;;;;;;;10288998;28;20385;-69
2023/01/21 04:53:13;;;;;;;;;;;;;;;;;;10286727;28;19963;-69
2023/01/21 04:58:10;;;;;;;;;;;;;;;;;;10291226;28;19951;-69
2023/01/21 05:03:08;;;;;;;;;;;;;;;;;;10294595;28;19960;-68
2023/01/21 05:08:06;;;;;;;;;;;;;;;;;;10289730;28;19959;-67
2023/01/21 05:13:04;;;;;;;;;;;;;;;;;;10293475;28;19963;-67
2023/01/21 05:18:02;;;;;;;;;;;;;;;;;;10271193;28;20305;-68
2023/01/21 05:23:00;;;;;;;;;;;;;;;;;;10291094;28;19963;-68
2023/01/21 05:27:58;;;;;;;;;;;;;;;;;;10289701;28;19957;-69
2023/01/21 05:32:56;;;;;;;;;;;;;;;;;;10274758;28;20294;-69
2023/01/21 05:37:54;;;;;;;;;;;;;;;;;;10292731;28;19920;-68
2023/01/21 05:42:52;;;;;;;;;;;;;;;;;;10290069;28;19960;-69
2023/01/21 05:47:50;;;;;;;;;;;;;;;;;;10290633;28;19928;-68
2023/01/21 05:52:48;;;;;;;;;;;;;;;;;;10291242;28;19963;-68
2023/01/21 05:57:46;;;;;;;;;;;;;;;;;;10293956;28;19928;-70
2023/01/21 06:02:44;;;;;;;;;;;;;;;;;;10292773;28;19978;-68
2023/01/21 06:07:42;;;;;;;;;;;;;;;;;;10290390;28;19952;-68
2023/01/21 06:12:40;;;;;;;;;;;;;;;;;;10291664;28;19956;-68
2023/01/21 06:17:38;;;;;;;;;;;;;;;;;;10289316;28;19956;-69
2023/01/21 06:22:36;;;;;;;;;;;;;;;;;;10290594;28;19955;-68
2023/01/21 06:27:36;;;;;;;;;;;;;;;;;;10288117;28;20416;-68
2023/01/21 06:32:34;;;;;;;;;;;;;;;;;;10283878;28;19958;-68
2023/01/21 06:37:32;;;;;;;;;;;;;;;;;;10278021;28;20014;-68
2023/01/21 06:42:30;;;;;;;;;;;;;;;;;;10287123;28;19963;-68
2023/01/21 06:47:28;;;;;;;;;;;;;;;;;;10286078;28;19963;-68
2023/01/21 06:52:26;;;;;;;;;;;;;;;;;;10284357;28;19967;-70
2023/01/21 06:57:24;;;;;;;;;;;;;;;;;;10286129;28;19967;-69
2023/01/21 07:02:22;;;;;;;;;;;;;;;;;;10285551;28;19963;-69
2023/01/21 07:07:19;;;;;;;;;;;;;;;;;;10286927;28;19956;-69
2023/01/21 07:12:17;;;;;;;;;;;;;;;;;;10291883;28;19960;-68
2023/01/21 07:17:16;;;;;;;;;;;;;;;;;;10294900;28;19960;-68
2023/01/21 07:22:14;;;;;;;;;;;;;;;;;;10289247;28;20392;-69
2023/01/21 07:27:12;;;;;;;;;;;;;;;;;;10294800;28;20019;-69
2023/01/21 07:32:10;;;;;;;;;;;;;;;;;;10290067;28;19963;-70
2023/01/21 07:37:07;;;;;;;;;;;;;;;;;;10289112;28;20393;-68
2023/01/21 07:42:05;;;;;;;;;;;;;;;;;;10284448;28;19960;-69
2023/01/21 07:47:03;;;;;;;;;;;;;;;;;;10290441;28;19951;-69
2023/01/21 07:52:01;;;;;;;;;;;;;;;;;;10293210;28;20206;-69
2023/01/21 07:56:59;;;;;;;;;;;;;;;;;;10282957;28;20398;-69
2023/01/21 08:01:57;;;;;;;;;;;;;;;;;;10256365;28;20366;-68
2023/01/21 08:06:55;;;;;;;;;;;;;;;;;;10262898;28;19979;-69
2023/01/21 08:11:53;;;;;;;;;;;;;;;;;;10269654;28;20405;-69
2023/01/21 08:16:51;;;;;;;;;;;;;;;;;;10267095;28;19952;-68
2023/01/21 08:21:49;;;;;;;;;;;;;;;;;;10266328;28;19991;-68
2023/01/21 08:26:47;;;;;;;;;;;;;;;;;;10265514;28;20394;-69
2023/01/21 08:31:45;;;;;;;;;;;;;;;;;;10269821;28;19958;-69
2023/01/21 08:36:43;;;;;;;;;;;;;;;;;;10290710;28;19929;-69
2023/01/21 08:41:41;;;;;;;;;;;;;;;;;;10288654;28;19968;-68
2023/01/21 08:46:39;;;;;;;;;;;;;;;;;;10286561;28;19967;-70
2023/01/21 08:51:37;;;;;;;;;;;;;;;;;;10267461;28;19975;-68
2023/01/21 08:56:36;;;;;;;;;;;;;;;;;;10261330;28;19952;-69
2023/01/21 09:01:35;;;;;;;;;;;;;;;;;;10272023;28;19975;-69
2023/01/21 09:06:33;;;;;;;;;;;;;;;;;;10276131;28;19956;-69
2023/01/21 09:11:31;;;;;;;;;;;;;;;;;;10273351;28;20408;-69
2023/01/21 09:16:30;;;;;;;;;;;;;;;;;;10284401;28;20069;-69
2023/01/21 09:21:28;;;;;;;;;;;;;;;;;;10278931;28;19968;-69
2023/01/21 09:26:26;;;;;;;;;;;;;;;;;;10289588;28;19979;-69
2023/01/21 09:31:24;;;;;;;;;;;;;;;;;;10284331;28;19960;-68
2023/01/21 09:36:22;;;;;;;;;;;;;;;;;;10280127;28;19956;-69
2023/01/21 09:41:20;;;;;;;;;;;;;;;;;;10279755;28;19971;-70
2023/01/21 09:46:18;;;;;;;;;;;;;;;;;;10279737;28;19975;-69
2023/01/21 09:51:16;;;;;;;;;;;;;;;;;;10293532;28;19982;-70
2023/01/21 09:56:14;;;;;;;;;;;;;;;;;;10273009;28;19961;-71
2023/01/21 10:01:12;;;;;;;;;;;;;;;;;;10250062;28;19948;-70
2023/01/21 10:06:11;;;;;;;;;;;;;;;;;;10258331;28;19967;-70
2023/01/21 10:11:09;;;;;;;;;;;;;;;;;;10261707;28;20417;-70
2023/01/21 10:16:07;;;;;;;;;;;;;;;;;;10263408;28;19964;-70
2023/01/21 10:21:04;;;;;;;;;;;;;;;;;;10261045;28;19951;-71
2023/01/21 10:26:02;;;;;;;;;;;;;;;;;;10254009;28;20401;-70
2023/01/21 10:31:00;;;;;;;;;;;;;;;;;;10262361;28;19959;-68
2023/01/21 10:35:58;;;;;;;;;;;;;;;;;;10262833;28;19963;-70
2023/01/21 10:40:56;;;;;;;;;;;;;;;;;;10269281;28;19958;-69
2023/01/21 10:45:54;;;;;;;;;;;;;;;;;;10276255;28;19967;-70
2023/01/21 10:50:53;;;;;;;;;;;;;;;;;;10273603;28;19971;-70
2023/01/21 10:55:51;;;;;;;;;;;;;;;;;;10271762;28;20401;-71
2023/01/21 11:00:49;;;;;;;;;;;;;;;;;;10275567;28;19948;-71
2023/01/21 11:05:46;;;;;;;;;;;;;;;;;;10264784;28;19964;-70
2023/01/21 11:10:46;;;;;;;;;;;;;;;;;;10271053;28;19968;-69
2023/01/21 11:15:44;;;;;;;;;;;;;;;;;;10264023;28;19955;-69
2023/01/21 11:20:42;;;;;;;;;;;;;;;;;;10267313;28;19963;-70
2023/01/21 11:25:40;;;;;;;;;;;;;;;;;;10268242;28;20457;-70
2023/01/21 11:30:38;;;;;;;;;;;;;;;;;;10268067;28;20527;-70
2023/01/21 11:35:51;;;;;;;;;;;;;;;;;;10272137;28;19971;-72
2023/01/21 11:40:49;;;;;;;;;;;;;;;;;;10273746;28;19951;-69
2023/01/21 11:45:50;;;;;;;;;;;;;;;;;;10277338;28;20389;-70
2023/01/21 11:50:49;;;;;;;;;;;;;;;;;;10268076;28;19952;-71
2023/01/21 11:55:46;;;;;;;;;;;;;;;;;;10271871;28;19952;-71
2023/01/21 12:00:44;;;;;;;;;;;;;;;;;;10299326;28;19947;-72
2023/01/21 12:05:42;;;;;;;;;;;;;;;;;;10273759;28;19968;-70
2023/01/21 12:10:40;;;;;;;;;;;;;;;;;;10283616;28;19960;-70
2023/01/21 12:15:38;;;;;;;;;;;;;;;;;;10266921;28;20029;-70
2023/01/21 12:20:38;;;;;;;;;;;;;;;;;;10264610;28;19952;-70
2023/01/21 12:25:39;;;;;;;;;;;;;;;;;;10266880;28;19971;-70
2023/01/21 12:30:37;;;;;;;;;;;;;;;;;;10265679;28;19956;-70
2023/01/21 12:35:35;;;;;;;;;;;;;;;;;;10266867;28;20394;-70
2023/01/21 12:40:33;;;;;;;;;;;;;;;;;;10271424;28;19963;-71
2023/01/21 12:45:31;;;;;;;;;;;;;;;;;;10279532;28;19963;-69
2023/01/21 12:50:29;;;;;;;;;;;;;;;;;;10282623;28;19974;-70
2023/01/21 12:55:27;;;;;;;;;;;;;;;;;;10283720;28;19959;-70
2023/01/21 13:00:24;;;;;;;;;;;;;;;;;;10285653;28;19974;-71
2023/01/21 13:05:22;;;;;;;;;;;;;;;;;;10285506;28;20390;-71
2023/01/21 13:10:20;;;;;;;;;;;;;;;;;;10277724;28;19963;-70
2023/01/21 13:15:18;;;;;;;;;;;;;;;;;;10290996;28;19966;-70
2023/01/21 13:20:16;;;;;;;;;;;;;;;;;;10257678;28;19964;-70
2023/01/21 13:25:14;;;;;;;;;;;;;;;;;;10260773;28;20642;-69
2023/01/21 13:30:12;;;;;;;;;;;;;;;;;;10254792;28;19956;-70
2023/01/21 13:35:10;;;;;;;;;;;;;;;;;;10280658;28;19959;-70
2023/01/21 13:40:09;;;;;;;;;;;;;;;;;;10271199;28;20020;-71
2023/01/21 13:45:07;;;;;;;;;;;;;;;;;;10272057;28;19952;-70
2023/01/21 13:50:05;;;;;;;;;;;;;;;;;;10268176;28;20379;-70
2023/01/21 13:55:03;;;;;;;;;;;;;;;;;;10271573;28;20810;-69
2023/01/21 14:00:01;;;;;;;;;;;;;;;;;;10283494;28;19948;-71
2023/01/21 14:05:08;;;;;;;;;;;;;;;;;;10268157;28;19967;-70
2023/01/21 14:10:05;;;;;;;;;;;;;;;;;;10261113;28;19971;-71
2023/01/21 14:15:03;;;;;;;;;;;;;;;;;;10255582;28;21235;-69
2023/01/21 14:20:01;;;;;;;;;;;;;;;;;;10265217;28;19966;-69
2023/01/21 14:24:59;;;;;;;;;;;;;;;;;;10265811;28;20376;-70
2023/01/21 14:29:57;;;;;;;;;;;;;;;;;;10274072;28;19971;-71
2023/01/21 14:34:55;;;;;;;;;;;;;;;;;;10272166;28;19964;-69
2023/01/21 14:39:54;;;;;;;;;;;;;;;;;;10264388;28;19960;-70
2023/01/21 14:44:52;;;;;;;;;;;;;;;;;;10271851;28;19960;-69
2023/01/21 14:49:50;;;;;;;;;;;;;;;;;;10257864;28;19967;-69
2023/01/21 14:54:48;;;;;;;;;;;;;;;;;;10268471;28;19944;-69
2023/01/21 14:59:46;;;;;;;;;;;;;;;;;;10262798;28;19959;-70
2023/01/21 15:04:44;;;;;;;;;;;;;;;;;;10284780;28;19975;-70
2023/01/21 15:09:41;;;;;;;;;;;;;;;;;;10288784;28;19956;-70
2023/01/21 15:14:39;;;;;;;;;;;;;;;;;;10286867;28;19967;-70
2023/01/21 15:19:38;;;;;;;;;;;;;;;;;;10279890;28;19964;-70
2023/01/21 15:24:36;;;;;;;;;;;;;;;;;;10285028;28;19964;-70
2023/01/21 15:29:34;;;;;;;;;;;;;;;;;;10291074;28;19972;-69
2023/01/21 15:34:32;;;;;;;;;;;;;;;;;;10294305;28;19955;-70
2023/01/21 15:39:30;;;;;;;;;;;;;;;;;;10294535;28;20406;-69
2023/01/21 15:44:27;;;;;;;;;;;;;;;;;;10284185;28;20357;-69
2023/01/21 15:49:29;;;;;;;;;;;;;;;;;;10287655;28;19967;-69
2023/01/21 15:54:27;;;;;;;;;;;;;;;;;;10295654;28;19954;-70
2023/01/21 15:59:25;;;;;;;;;;;;;;;;;;10290751;28;19952;-69
2023/01/21 16:04:23;;;;;;;;;;;;;;;;;;10289438;28;19971;-70
2023/01/21 16:09:21;;;;;;;;;;;;;;;;;;10289846;28;19971;-70
2023/01/21 16:14:18;;;;;;;;;;;;;;;;;;10255022;28;19952;-69
2023/01/21 16:19:16;;;;;;;;;;;;;;;;;;10280110;28;19955;-69
2023/01/21 16:24:15;;;;;;;;;;;;;;;;;;10261334;28;19967;-69
2023/01/21 16:29:13;;;;;;;;;;;;;;;;;;10261757;28;20383;-70
2023/01/21 16:34:11;;;;;;;;;;;;;;;;;;10268064;28;20397;-68
2023/01/21 16:39:09;;;;;;;;;;;;;;;;;;10270393;28;20424;-69
2023/01/21 16:44:07;;;;;;;;;;;;;;;;;;10251121;28;20434;-69
2023/01/21 16:49:05;;;;;;;;;;;;;;;;;;10261144;28;19963;-69
2023/01/21 16:54:03;;;;;;;;;;;;;;;;;;10249319;28;19960;-70
2023/01/21 16:59:01;;;;;;;;;;;;;;;;;;10265874;28;19963;-70
2023/01/21 17:04:02;;;;;;;;;;;;;;;;;;10257460;28;20028;-69
2023/01/21 17:08:59;;;;;;;;;;;;;;;;;;10261194;28;19987;-69
2023/01/21 17:13:57;;;;;;;;;;;;;;;;;;10289970;28;19952;-70
2023/01/21 17:18:55;;;;;;;;;;;;;;;;;;10269299;28;19944;-68
2023/01/21 17:23:53;;;;;;;;;;;;;;;;;;10255120;28;20027;-70
2023/01/21 17:28:52;;;;;;;;;;;;;;;;;;10271261;28;20424;-70
2023/01/21 17:33:51;;;;;;;;;;;;;;;;;;10269308;28;19956;-70
2023/01/21 17:38:49;;;;;;;;;;;;;;;;;;10257850;28;19959;-70
2023/01/21 17:43:47;;;;;;;;;;;;;;;;;;10257230;28;19970;-71
2023/01/21 17:48:45;;;;;;;;;;;;;;;;;;10272437;28;20385;-70
2023/01/21 17:53:43;;;;;;;;;;;;;;;;;;10279580;28;19952;-69
2023/01/21 17:58:43;;;;;;;;;;;;;;;;;;10258727;28;20051;-69
2023/01/21 18:03:41;;;;;;;;;;;;;;;;;;10255700;28;19960;-69
2023/01/21 18:08:39;;;;;;;;;;;;;;;;;;10255721;28;19948;-69
2023/01/21 18:13:37;;;;;;;;;;;;;;;;;;10254355;28;19964;-69
2023/01/21 18:18:35;;;;;;;;;;;;;;;;;;10251412;28;19975;-69
2023/01/21 18:23:33;;;;;;;;;;;;;;;;;;10263520;28;19975;-68
2023/01/21 18:28:31;;;;;;;;;;;;;;;;;;10252661;28;19960;-69
2023/01/21 18:33:30;;;;;;;;;;;;;;;;;;10270260;28;19953;-70
2023/01/21 18:38:28;;;;;;;;;;;;;;;;;;10247751;28;19960;-69
2023/01/21 18:43:28;;;;;;;;;;;;;;;;;;10278105;28;20409;-70
2023/01/21 18:48:27;;;;;;;;;;;;;;;;;;10253984;28;20393;-68
2023/01/21 18:53:25;;;;;;;;;;;;;;;;;;10247915;28;19975;-69
2023/01/21 18:58:23;;;;;;;;;;;;;;;;;;10241971;28;20029;-70
2023/01/21 19:03:22;;;;;;;;;;;;;;;;;;10245742;28;19971;-70
2023/01/21 19:08:23;;;;;;;;;;;;;;;;;;10267589;28;19952;-69
2023/01/21 19:13:21;;;;;;;;;;;;;;;;;;10254661;28;19960;-69
2023/01/21 19:18:20;;;;;;;;;;;;;;;;;;10249674;28;20527;-70
2023/01/21 19:23:19;;;;;;;;;;;;;;;;;;10253231;28;20094;-69
2023/01/21 19:28:18;;;;;;;;;;;;;;;;;;10256013;28;20369;-71
2023/01/21 19:33:17;;;;;;;;;;;;;;;;;;10263258;28;19971;-69
2023/01/21 19:38:16;;;;;;;;;;;;;;;;;;10251974;28;20405;-69
2023/01/21 19:43:15;;;;;;;;;;;;;;;;;;10261567;28;19959;-69
2023/01/21 19:48:16;;;;;;;;;;;;;;;;;;10261183;28;19971;-69
2023/01/21 19:53:15;;;;;;;;;;;;;;;;;;10250637;28;19963;-70
2023/01/21 19:58:14;;;;;;;;;;;;;;;;;;10259627;28;19963;-69
2023/01/21 20:03:13;;;;;;;;;;;;;;;;;;10261051;28;20369;-69
2023/01/21 20:08:13;;;;;;;;;;;;;;;;;;10271218;28;19952;-68
2023/01/21 20:13:11;;;;;;;;;;;;;;;;;;10265089;28;19956;-68
2023/01/21 20:18:09;;;;;;;;;;;;;;;;;;10280217;28;19967;-69
2023/01/21 20:23:08;;;;;;;;;;;;;;;;;;10261559;28;20251;-69
2023/01/21 20:28:06;;;;;;;;;;;;;;;;;;10269659;28;19955;-68
2023/01/21 20:33:04;;;;;;;;;;;;;;;;;;10274226;28;19959;-69
2023/01/21 20:38:02;;;;;;;;;;;;;;;;;;10258148;28;19956;-67
2023/01/21 20:43:00;;;;;;;;;;;;;;;;;;10267743;28;20393;-68
2023/01/21 20:47:58;;;;;;;;;;;;;;;;;;10261763;28;19952;-68
2023/01/21 20:52:57;;;;;;;;;;;;;;;;;;10260697;28;19971;-67
2023/01/21 20:57:55;;;;;;;;;;;;;;;;;;10262645;28;20397;-69
2023/01/21 21:02:54;;;;;;;;;;;;;;;;;;10272923;28;19979;-69
2023/01/21 21:07:52;;;;;;;;;;;;;;;;;;10256175;28;19971;-69
2023/01/21 21:12:50;;;;;;;;;;;;;;;;;;10254417;28;19949;-69
2023/01/21 21:17:48;;;;;;;;;;;;;;;;;;10255798;28;19956;-69
2023/01/21 21:22:46;;;;;;;;;;;;;;;;;;10262860;28;19975;-69
2023/01/21 21:27:44;;;;;;;;;;;;;;;;;;10257125;28;20515;-68
2023/01/21 21:32:41;;;;;;;;;;;;;;;;;;10252813;28;20382;-69
2023/01/21 21:37:39;;;;;;;;;;;;;;;;;;10287411;28;19959;-69
2023/01/21 21:53:08;;;;;;;;;;;;;;;;;;10289635;28;20077;-70
2023/01/21 21:58:06;;;;;;;;;;;;;;;;;;10266255;28;19967;-69
2023/01/21 22:03:06;;;;;;;;;;;;;;;;;;10262909;28;19960;-69
2023/01/21 22:08:04;;;;;;;;;;;;;;;;;;10245519;28;19959;-68
2023/01/21 22:13:02;;;;;;;;;;;;;;;;;;10262419;28;19964;-69
2023/01/21 22:17:59;;;;;;;;;;;;;;;;;;10263058;28;20393;-68
2023/01/21 22:22:57;;;;;;;;;;;;;;;;;;10270463;28;20027;-69
2023/01/21 22:27:56;;;;;;;;;;;;;;;;;;10266014;28;19967;-69
2023/01/21 22:33:03;;;;;;;;;;;;;;;;;;10267991;28;19967;-68
2023/01/21 22:38:01;;;;;;;;;;;;;;;;;;10269945;28;20370;-69
2023/01/21 22:42:59;;;;;;;;;;;;;;;;;;10272948;28;19966;-70
2023/01/21 22:47:57;;;;;;;;;;;;;;;;;;10273636;28;19959;-69
2023/01/21 22:52:54;;;;;;;;;;;;;;;;;;10276862;28;19967;-69
2023/01/21 22:57:52;;;;;;;;;;;;;;;;;;10280600;28;19967;-69
2023/01/21 23:02:50;;;;;;;;;;;;;;;;;;10294058;28;19952;-68
2023/01/21 23:07:48;;;;;;;;;;;;;;;;;;10296977;28;19967;-67
2023/01/21 23:12:46;;;;;;;;;;;;;;;;;;10293628;28;19962;-67
2023/01/21 23:17:44;;;;;;;;;;;;;;;;;;10296985;28;19920;-68
2023/01/21 23:22:42;;;;;;;;;;;;;;;;;;10292529;28;19952;-68
2023/01/21 23:27:40;;;;;;;;;;;;;;;;;;10292419;28;20374;-66
2023/01/21 23:32:38;;;;;;;;;;;;;;;;;;10292887;28;19967;-67
2023/01/21 23:37:36;;;;;;;;;;;;;;;;;;10295594;28;19997;-67
2023/01/21 23:42:34;;;;;;;;;;;;;;;;;;10295711;28;19963;-66
2023/01/21 23:47:31;;;;;;;;;;;;;;;;;;10295771;28;19960;-66
2023/01/21 23:52:29;;;;;;;;;;;;;;;;;;10294020;28;19972;-66
2023/01/21 23:57:29;;;;;;;;;;;;;;;;;;10294016;28;20449;-67
